createdAt,value
2023-03-05T00:00:19.547Z,73.38379
2023-03-05T00:02:19.549Z,73.54004
2023-03-05T00:04:19.399Z,73.90137
2023-03-05T00:06:53.659Z,74.0293
2023-03-05T00:08:53.753Z,73.75586
2023-03-05T00:10:53.585Z,75.01465
2023-03-05T00:12:53.782Z,74.65625
2023-03-05T00:14:53.672Z,74.20605
2023-03-05T00:16:53.748Z,73.88574
2023-03-05T00:18:53.632Z,73.85547
2023-03-05T00:22:01.286Z,73.76172
2023-03-05T00:24:01.246Z,73.6875
2023-03-05T00:26:01.056Z,72.97949
2023-03-05T00:28:01.065Z,73.47852
2023-03-05T00:30:01.145Z,72.78711
2023-03-05T00:32:01.263Z,72.98633
2023-03-05T00:34:01.073Z,72.87891
2023-03-05T00:37:52.711Z,72.82129
2023-03-05T00:39:52.793Z,73.34375
2023-03-05T00:41:52.690Z,73.00293
2023-03-05T00:43:52.596Z,72.94238
2023-03-05T00:45:52.730Z,72.73047
2023-03-05T00:47:52.827Z,73.08594
2023-03-05T00:49:52.953Z,73.16016
2023-03-05T00:52:41.222Z,73.06055
2023-03-05T00:54:41.291Z,73.13965
2023-03-05T00:56:41.180Z,73.14746
2023-03-05T00:58:41.221Z,73.45898
2023-03-05T01:00:41.184Z,72.98535
2023-03-05T01:02:41.205Z,72.6416
2023-03-05T01:04:41.151Z,73.07422
2023-03-05T01:08:01.395Z,73.45508
2023-03-05T01:10:01.282Z,72.7959
2023-03-05T01:12:01.257Z,72.98145
2023-03-05T01:14:01.335Z,72.87012
2023-03-05T01:16:01.564Z,73.49023
2023-03-05T01:18:01.226Z,73.16211
2023-03-05T01:20:01.346Z,72.80859
2023-03-05T01:23:11.767Z,72.95508
2023-03-05T01:25:11.784Z,72.62305
2023-03-05T01:27:11.785Z,72.50293
2023-03-05T01:29:11.705Z,72.52148
2023-03-05T01:31:12.007Z,72.30762
2023-03-05T01:33:11.701Z,72.60742
2023-03-05T01:35:11.843Z,73.27148
2023-03-05T01:37:47.584Z,72.60352
2023-03-05T01:39:47.678Z,72.81738
2023-03-05T01:41:47.847Z,72.77734
2023-03-05T01:43:47.621Z,72.39355
2023-03-05T01:45:47.933Z,73.0293
2023-03-05T01:47:47.560Z,72.81055
2023-03-05T01:49:47.636Z,73.22363
2023-03-05T01:51:47.703Z,72.93652
2023-03-05T01:53:27.829Z,72.69434
2023-03-05T01:55:27.928Z,72.65625
2023-03-05T01:57:27.828Z,72.60938
2023-03-05T01:59:27.783Z,72.69043
2023-03-05T02:01:27.948Z,72.68164
2023-03-05T02:03:28.018Z,72.4043
2023-03-05T02:05:27.876Z,72.42676
2023-03-05T02:08:49.496Z,72.46582
2023-03-05T02:10:49.303Z,72.2998
2023-03-05T02:12:49.296Z,72.72656
2023-03-05T02:14:49.267Z,72.62598
2023-03-05T02:16:49.489Z,72.76758
2023-03-05T02:18:49.234Z,72.60742
2023-03-05T02:20:49.282Z,72.91895
2023-03-05T02:23:34.468Z,72.37012
2023-03-05T02:25:34.604Z,72.41895
2023-03-05T02:27:34.502Z,73
2023-03-05T02:29:34.549Z,72.87695
2023-03-05T02:31:34.638Z,72.64355
2023-03-05T02:33:34.506Z,72.75977
2023-03-05T02:35:34.530Z,72.85156
2023-03-05T02:39:00.819Z,73.07617
2023-03-05T02:41:00.658Z,72.87305
2023-03-05T02:43:00.672Z,72.47852
2023-03-05T02:45:00.795Z,73.0918
2023-03-05T02:47:00.738Z,73.10254
2023-03-05T02:49:00.684Z,73.55078
2023-03-05T02:51:00.720Z,73.37305
2023-03-05T02:53:43.212Z,74.01074
2023-03-05T02:55:43.161Z,73.87891
2023-03-05T02:57:43.222Z,73.69922
2023-03-05T02:59:43.189Z,73.96094
2023-03-05T03:01:43.157Z,74.04688
2023-03-05T03:03:43.149Z,74.19629
2023-03-05T03:05:43.202Z,73.92969
2023-03-05T03:09:18.047Z,73.96582
2023-03-05T03:11:18.117Z,73.77637
2023-03-05T03:13:17.893Z,73.59961
2023-03-05T03:15:17.911Z,74.46094
2023-03-05T03:17:18.130Z,73.44336
2023-03-05T03:19:18.010Z,73.69531
2023-03-05T03:21:17.948Z,73.76953
2023-03-05T03:24:36.241Z,74.25977
2023-03-05T03:26:35.713Z,74.43555
2023-03-05T03:28:35.982Z,74.29688
2023-03-05T03:30:35.801Z,73.49902
2023-03-05T03:32:35.794Z,74.0752
2023-03-05T03:34:35.821Z,74.27344
2023-03-05T03:36:35.952Z,74.48145
2023-03-05T03:39:55.233Z,74.37402
2023-03-05T03:41:55.361Z,74.36719
2023-03-05T03:43:55.302Z,73.80078
2023-03-05T03:45:55.560Z,74
2023-03-05T03:47:55.225Z,74.47754
2023-03-05T03:49:55.286Z,74.4873
2023-03-05T03:51:55.282Z,74.99414
2023-03-05T03:54:11.310Z,75.06934
2023-03-05T03:56:11.446Z,75.21582
2023-03-05T03:58:11.165Z,75.19336
2023-03-05T04:00:11.208Z,75.17969
2023-03-05T04:02:11.305Z,75.7168
2023-03-05T04:04:11.240Z,75.33594
2023-03-05T04:06:11.095Z,75.18945
2023-03-05T04:08:11.095Z,75.06738
2023-03-05T04:09:35.026Z,75.61719
2023-03-05T04:11:34.992Z,75.7168
2023-03-05T04:13:34.898Z,75.89258
2023-03-05T04:15:35.101Z,75.53809
2023-03-05T04:17:34.918Z,75.70801
2023-03-05T04:19:35.019Z,75.40527
2023-03-05T04:21:34.884Z,75.30078
2023-03-05T04:25:27.946Z,75.3584
2023-03-05T04:27:27.655Z,75.29688
2023-03-05T04:29:28.005Z,75.42285
2023-03-05T04:31:27.924Z,75.46191
2023-03-05T04:33:27.586Z,75.50195
2023-03-05T04:35:28.220Z,75.15918
2023-03-05T04:37:27.614Z,75.29688
2023-03-05T04:40:17.346Z,74.94141
2023-03-05T04:42:17.267Z,74.70605
2023-03-05T04:44:17.431Z,75.33887
2023-03-05T04:46:17.400Z,75.15918
2023-03-05T04:48:17.398Z,75.28125
2023-03-05T04:50:17.332Z,75.13867
2023-03-05T04:52:17.456Z,75.40039
2023-03-05T04:55:47.967Z,75.28809
2023-03-05T04:57:48.016Z,75.59375
2023-03-05T04:59:48.360Z,75.4082
2023-03-05T05:01:48.042Z,75.625
2023-03-05T05:03:48.014Z,75.2334
2023-03-05T05:05:47.989Z,74.6377
2023-03-05T05:07:48.071Z,75.10449
2023-03-05T05:10:58.242Z,74.34668
2023-03-05T05:12:58.320Z,74.63965
2023-03-05T05:14:58.562Z,74.60742
2023-03-05T05:16:58.301Z,75.1377
2023-03-05T05:18:58.433Z,75.05469
2023-03-05T05:20:58.327Z,75.44531
2023-03-05T05:22:58.355Z,75.72949
2023-03-05T05:25:57.073Z,75.15625
2023-03-05T05:27:57.079Z,75.18945
2023-03-05T05:29:57.178Z,75.65039
2023-03-05T05:31:57.072Z,74.83594
2023-03-05T05:33:57.042Z,75.13867
2023-03-05T05:35:57.107Z,75.52637
2023-03-05T05:37:57.162Z,75.74316
2023-03-05T05:41:08.238Z,75.43848
2023-03-05T05:43:08.214Z,75.39551
2023-03-05T05:45:08.398Z,75.10645
2023-03-05T05:47:08.265Z,75.59668
2023-03-05T05:49:08.230Z,75.47266
2023-03-05T05:51:08.169Z,74.90234
2023-03-05T05:53:08.234Z,75.12109
2023-03-05T05:56:03.920Z,74.64746
2023-03-05T05:58:03.978Z,73.95703
2023-03-05T06:00:03.925Z,74.78418
2023-03-05T06:02:04.003Z,74.40918
2023-03-05T06:04:03.892Z,74.17676
2023-03-05T06:06:03.952Z,73.0752
2023-03-05T06:08:03.925Z,74.48047
2023-03-05T06:11:38.799Z,74.91699
2023-03-05T06:13:38.642Z,74.22559
2023-03-05T06:15:38.666Z,73.00684
2023-03-05T06:17:38.681Z,72.93848
2023-03-05T06:19:38.634Z,73.08789
2023-03-05T06:21:38.723Z,73.10156
2023-03-05T06:23:38.616Z,73.08887
2023-03-05T06:25:57.967Z,73.72949
2023-03-05T06:27:57.966Z,72.82715
2023-03-05T06:29:57.989Z,72.69629
2023-03-05T06:31:58.348Z,73.08594
2023-03-05T06:33:58.070Z,73.38867
2023-03-05T06:35:58.066Z,73.06152
2023-03-05T06:37:58.132Z,72.35645
2023-03-05T06:39:58.071Z,73.89063
2023-03-05T06:41:44.156Z,72.1084
2023-03-05T06:43:44.213Z,72.05078
2023-03-05T06:45:44.358Z,72.53516
2023-03-05T06:47:44.232Z,71.99707
2023-03-05T06:49:44.266Z,71.24219
2023-03-05T06:51:44.361Z,72.58496
2023-03-05T06:53:44.241Z,73.74805
2023-03-05T06:56:50.707Z,70.80664
2023-03-05T06:58:50.750Z,72.42578
2023-03-05T07:00:50.700Z,71.93066
2023-03-05T07:02:50.838Z,71.99219
2023-03-05T07:04:50.653Z,70.79785
2023-03-05T07:06:50.763Z,72.39063
2023-03-05T07:08:50.711Z,72.41406
2023-03-05T07:11:38.253Z,70.82031
2023-03-05T07:13:38.318Z,70.46875
2023-03-05T07:15:38.298Z,69.66113
2023-03-05T07:17:38.269Z,70.84961
2023-03-05T07:19:38.370Z,70.48242
2023-03-05T07:21:40.235Z,69.01172
2023-03-05T07:23:38.153Z,71.13574
2023-03-05T07:27:08.912Z,69.28418
2023-03-05T07:29:08.482Z,67.74316
2023-03-05T07:31:08.657Z,68.56543
2023-03-05T07:33:08.642Z,68.05762
2023-03-05T07:35:09.202Z,68.60449
2023-03-05T07:37:08.562Z,67.92773
2023-03-05T07:39:08.485Z,67.67969
2023-03-05T07:42:10.214Z,68.77734
2023-03-05T07:44:10.328Z,68.98047
2023-03-05T07:46:10.371Z,67.88477
2023-03-05T07:48:10.661Z,66.72363
2023-03-05T07:50:10.119Z,68.27441
2023-03-05T07:52:10.118Z,67.2373
2023-03-05T07:54:10.164Z,67.99316
2023-03-05T07:57:38.233Z,66.40039
2023-03-05T07:59:38.217Z,66.24805
2023-03-05T08:01:38.232Z,64.56641
2023-03-05T08:03:38.418Z,65.91113
2023-03-05T08:05:38.330Z,65.01367
2023-03-05T08:07:38.257Z,65.3916
2023-03-05T08:09:38.381Z,65.82813
2023-03-05T08:12:36.899Z,66.47461
2023-03-05T08:14:37.047Z,65.20313
2023-03-05T08:16:36.873Z,64.48242
2023-03-05T08:18:36.955Z,63.52734
2023-03-05T08:20:36.908Z,64.72266
2023-03-05T08:22:37.033Z,62.76172
2023-03-05T08:24:36.835Z,63.75391
2023-03-05T08:27:40.540Z,63.53711
2023-03-05T08:29:40.522Z,63.84668
2023-03-05T08:31:40.757Z,63.80762
2023-03-05T08:33:40.476Z,63.70117
2023-03-05T08:35:40.549Z,62.66992
2023-03-05T08:37:40.326Z,63.28516
2023-03-05T08:39:40.540Z,62.02734
2023-03-05T08:42:35.730Z,62.86133
2023-03-05T08:44:35.755Z,62.60742
2023-03-05T08:46:35.749Z,62.7666
2023-03-05T08:48:35.815Z,61.92578
2023-03-05T08:50:39.042Z,62.65137
2023-03-05T08:52:36.040Z,63.32129
2023-03-05T08:54:35.729Z,62.47852
2023-03-05T08:58:28.769Z,63.08398
2023-03-05T09:00:28.614Z,61.41113
2023-03-05T09:02:28.845Z,61.12793
2023-03-05T09:04:28.814Z,61.97852
2023-03-05T09:06:28.784Z,60.65625
2023-03-05T09:08:28.634Z,60.25098
2023-03-05T09:10:28.761Z,60.45215
2023-03-05T09:12:52.511Z,59.74023
2023-03-05T09:14:52.448Z,58.60645
2023-03-05T09:16:52.558Z,59.99219
2023-03-05T09:18:52.549Z,59.25293
2023-03-05T09:20:52.455Z,60.92383
2023-03-05T09:22:52.443Z,60.11719
2023-03-05T09:24:52.462Z,59.05176
2023-03-05T09:26:52.329Z,61.08008
2023-03-05T09:28:40.961Z,58.875
2023-03-05T09:30:40.803Z,59.80664
2023-03-05T09:32:40.980Z,56.77441
2023-03-05T09:34:41.118Z,58.63867
2023-03-05T09:36:41.128Z,57.21582
2023-03-05T09:38:41.157Z,57.625
2023-03-05T09:40:41.228Z,57.91113
2023-03-05T09:43:16.551Z,56.77441
2023-03-05T09:45:15.268Z,59.37305
2023-03-05T09:47:15.415Z,58.0166
2023-03-05T09:49:15.251Z,57.68066
2023-03-05T09:51:15.278Z,56.94434
2023-03-05T09:53:15.092Z,56.1543
2023-03-05T09:55:15.072Z,57.28223
2023-03-05T09:58:28.655Z,56.97754
2023-03-05T10:00:28.680Z,56.46387
2023-03-05T10:02:28.256Z,55.6084
2023-03-05T10:04:28.408Z,56.54492
2023-03-05T10:06:28.509Z,57.76074
2023-03-05T10:08:28.468Z,57.79297
2023-03-05T10:10:28.560Z,57.87305
2023-03-05T10:14:06.255Z,56.03125
2023-03-05T10:16:05.988Z,57.52246
2023-03-05T10:18:06.009Z,54.94141
2023-03-05T10:20:05.957Z,57.10645
2023-03-05T10:22:05.977Z,56.94922
2023-03-05T10:24:06.025Z,56.12109
2023-03-05T10:26:05.949Z,54.62402
2023-03-05T10:28:46.666Z,54.75
2023-03-05T10:30:46.615Z,55.50879
2023-03-05T10:32:46.799Z,57.35352
2023-03-05T10:34:46.584Z,55.44824
2023-03-05T10:36:46.747Z,54.25293
2023-03-05T10:38:46.617Z,53.72266
2023-03-05T10:40:46.576Z,53.27539
2023-03-05T10:44:40.813Z,55.09863
2023-03-05T10:46:40.701Z,55.19336
2023-03-05T10:48:40.653Z,54.48242
2023-03-05T10:50:40.640Z,54.44434
2023-03-05T10:52:40.730Z,49.83594
2023-03-05T10:54:40.636Z,49.28418
2023-03-05T10:56:40.643Z,52.64453
2023-03-05T10:59:18.972Z,52.18652
2023-03-05T11:01:19.087Z,50.62305
2023-03-05T11:03:19.035Z,52.21777
2023-03-05T11:05:19.005Z,52.12109
2023-03-05T11:07:18.959Z,53.2168
2023-03-05T11:09:18.943Z,52.0957
2023-03-05T11:11:18.954Z,53.31836
2023-03-05T11:14:38.515Z,50.96191
2023-03-05T11:16:38.549Z,51.87207
2023-03-05T11:18:38.530Z,51.14746
2023-03-05T11:20:38.509Z,52.01172
2023-03-05T11:22:38.516Z,51.8418
2023-03-05T11:24:38.502Z,50.98242
2023-03-05T11:26:38.572Z,50.84863
2023-03-05T11:29:56.354Z,49.61328
2023-03-05T11:31:56.349Z,50.15137
2023-03-05T11:33:56.370Z,49.72852
2023-03-05T11:35:56.406Z,50.00195
2023-03-05T11:37:56.333Z,52.73535
2023-03-05T11:39:56.298Z,49.80762
2023-03-05T11:41:56.339Z,50.82422
2023-03-05T11:44:46.930Z,51.19141
2023-03-05T11:46:47.004Z,49.7793
2023-03-05T11:48:46.969Z,48.89355
2023-03-05T11:50:47.032Z,49.8125
2023-03-05T11:52:46.927Z,48.48535
2023-03-05T11:54:46.998Z,49.91504
2023-03-05T11:56:46.977Z,50.53906
2023-03-05T12:00:01.190Z,50.23828
2023-03-05T12:02:01.163Z,49.5918
2023-03-05T12:04:01.404Z,52.09766
2023-03-05T12:06:01.213Z,49.98047
2023-03-05T12:08:01.220Z,49.33887
2023-03-05T12:10:01.228Z,49.22949
2023-03-05T12:12:01.160Z,51.05859
2023-03-05T12:14:54.578Z,49.52539
2023-03-05T12:16:54.503Z,48.96484
2023-03-05T12:18:54.660Z,47.52637
2023-03-05T12:20:54.562Z,47.29199
2023-03-05T12:22:54.653Z,48.54883
2023-03-05T12:24:54.646Z,49.56543
2023-03-05T12:26:54.699Z,48.47363
2023-03-05T12:30:25.104Z,49.30273
2023-03-05T12:32:23.383Z,48.02051
2023-03-05T12:34:23.069Z,48.51172
2023-03-05T12:36:23.002Z,48.73828
2023-03-05T12:38:27.420Z,48.78906
2023-03-05T12:40:23.053Z,48.45215
2023-03-05T12:42:22.964Z,50.11426
2023-03-05T12:45:19.858Z,49.23926
2023-03-05T12:47:19.816Z,49.66992
2023-03-05T12:49:19.803Z,49.26074
2023-03-05T12:51:20.035Z,50.05469
2023-03-05T12:53:19.976Z,49.13281
2023-03-05T12:55:19.830Z,48.52734
2023-03-05T12:57:19.752Z,46.10156
2023-03-05T13:00:56.175Z,48.68945
2023-03-05T13:02:56.121Z,50.30664
2023-03-05T13:04:59.180Z,48.7998
2023-03-05T13:06:56.125Z,48.17188
2023-03-05T13:08:56.056Z,50.41504
2023-03-05T13:10:56.226Z,47.57715
2023-03-05T13:12:56.045Z,48.79492
2023-03-05T13:16:04.968Z,48.95703
2023-03-05T13:18:04.324Z,50.29004
2023-03-05T13:20:04.326Z,49.00195
2023-03-05T13:22:04.359Z,49.64355
2023-03-05T13:24:04.451Z,48.90723
2023-03-05T13:26:04.590Z,49.5332
2023-03-05T13:28:04.406Z,49.76953
2023-03-05T13:31:09.115Z,49.33105
2023-03-05T13:33:08.901Z,49.02344
2023-03-05T13:35:08.934Z,47.34375
2023-03-05T13:37:08.955Z,49.06543
2023-03-05T13:39:08.951Z,49.75391
2023-03-05T13:41:08.962Z,49.54199
2023-03-05T13:43:08.942Z,48.89844
2023-03-05T13:45:46.094Z,49.78711
2023-03-05T13:47:45.896Z,49.07617
2023-03-05T13:49:45.948Z,49.58789
2023-03-05T13:51:45.949Z,49.71875
2023-03-05T13:53:46.524Z,49.66699
2023-03-05T13:55:45.938Z,49.97168
2023-03-05T13:57:46.120Z,49.75684
2023-03-05T13:59:45.998Z,49.56641
2023-03-05T14:01:00.365Z,48.86621
2023-03-05T14:03:00.471Z,49.13574
2023-03-05T14:05:00.429Z,48.35059
2023-03-05T14:07:00.259Z,48.48438
2023-03-05T14:09:00.264Z,49.10254
2023-03-05T14:11:00.242Z,48.58301
2023-03-05T14:13:00.315Z,48.85547
2023-03-05T14:15:00.215Z,49.94238
2023-03-05T14:16:34.430Z,50.6582
2023-03-05T14:18:34.258Z,48.66797
2023-03-05T14:20:34.274Z,50.35254
2023-03-05T14:22:34.345Z,49.54492
2023-03-05T14:24:34.396Z,49.29688
2023-03-05T14:26:34.316Z,48.76074
2023-03-05T14:28:34.387Z,49.40527
2023-03-05T14:31:55.458Z,48.41016
2023-03-05T14:33:55.415Z,48.3916
2023-03-05T14:35:55.423Z,49.09473
2023-03-05T14:37:55.454Z,49.54199
2023-03-05T14:39:55.379Z,49.98047
2023-03-05T14:41:55.413Z,49.49609
2023-03-05T14:43:55.388Z,49.20508
2023-03-05T14:46:32.024Z,50.11035
2023-03-05T14:48:32.196Z,48.68359
2023-03-05T14:50:32.012Z,49.27832
2023-03-05T14:52:32.010Z,50.78516
2023-03-05T14:54:32.094Z,50.4873
2023-03-05T14:56:32.133Z,50.37109
2023-03-05T14:58:32.034Z,50.20703
2023-03-05T15:02:24.770Z,48.4502
2023-03-05T15:04:24.906Z,48.35742
2023-03-05T15:06:26.623Z,48.83496
2023-03-05T15:08:25.171Z,48.4375
2023-03-05T15:10:25.034Z,47.84863
2023-03-05T15:12:24.925Z,47.90039
2023-03-05T15:14:24.826Z,47.50293
2023-03-05T15:17:01.904Z,47.47754
2023-03-05T15:19:01.884Z,47.14258
2023-03-05T15:21:01.814Z,47.71875
2023-03-05T15:23:01.832Z,48.04492
2023-03-05T15:25:01.845Z,48.71191
2023-03-05T15:27:01.776Z,49.13672
2023-03-05T15:29:01.746Z,49.94727
2023-03-05T15:32:08.118Z,49.86523
2023-03-05T15:34:08.029Z,50.03418
2023-03-05T15:36:08.533Z,49.94727
2023-03-05T15:38:07.953Z,50.17773
2023-03-05T15:40:08.157Z,50.27832
2023-03-05T15:42:08.204Z,51.19922
2023-03-05T15:44:07.996Z,51.03027
2023-03-05T15:47:53.307Z,50.80957
2023-03-05T15:49:53.386Z,51.6377
2023-03-05T15:51:53.554Z,50.71582
2023-03-05T15:53:53.190Z,51.63672
2023-03-05T15:55:53.176Z,51.93164
2023-03-05T15:57:53.247Z,51.64941
2023-03-05T15:59:53.195Z,51.50684
2023-03-05T16:02:54.342Z,52.49805
2023-03-05T16:04:54.192Z,52.85156
2023-03-05T16:06:54.424Z,52.81738
2023-03-05T16:08:54.303Z,53.00977
2023-03-05T16:10:54.417Z,52.73145
2023-03-05T16:12:54.194Z,53.79492
2023-03-05T16:14:54.247Z,53.92676
2023-03-05T16:18:16.012Z,53.74707
2023-03-05T16:20:16.017Z,53.69043
2023-03-05T16:22:16.026Z,53.62109
2023-03-05T16:24:16.278Z,54.24902
2023-03-05T16:26:16.037Z,54.04004
2023-03-05T16:28:15.939Z,53.04102
2023-03-05T16:30:16.003Z,54.43262
2023-03-05T16:32:37.825Z,55.0752
2023-03-05T16:34:37.634Z,55.64941
2023-03-05T16:36:37.646Z,56.1123
2023-03-05T16:38:37.660Z,55.19922
2023-03-05T16:41:08.075Z,55.66309
2023-03-05T16:42:38.049Z,56.24023
2023-03-05T16:44:37.877Z,56.37891
2023-03-05T16:46:38.332Z,55.72949
2023-03-05T16:48:12.522Z,56.11621
2023-03-05T16:50:12.623Z,55.88477
2023-03-05T16:52:20.884Z,56.70996
2023-03-05T16:54:12.594Z,56.37109
2023-03-05T16:56:12.586Z,55.94824
2023-03-05T16:58:12.530Z,55.99023
2023-03-05T17:00:12.684Z,55.39746
2023-03-05T17:03:46.804Z,56.44629
2023-03-05T17:05:46.995Z,56.58691
2023-03-05T17:07:46.543Z,57.2207
2023-03-05T17:09:46.497Z,56.16699
2023-03-05T17:11:46.497Z,55.97266
2023-03-05T17:13:49.329Z,55.58594
2023-03-05T17:15:46.567Z,55.25391
2023-03-05T17:18:47.451Z,56.79785
2023-03-05T17:20:47.461Z,56.17676
2023-03-05T17:22:47.417Z,55.80371
2023-03-05T17:24:47.708Z,56.54102
2023-03-05T17:26:47.717Z,55.14746
2023-03-05T17:28:47.643Z,56.72559
2023-03-05T17:30:47.601Z,56.4248
2023-03-05T17:33:51.706Z,56.11914
2023-03-05T17:35:52.148Z,55.53906
2023-03-05T17:37:51.705Z,56.13379
2023-03-05T17:39:51.638Z,54.62988
2023-03-05T17:41:51.841Z,54.62695
2023-03-05T17:43:51.741Z,55.87988
2023-03-05T17:45:51.859Z,54.89063
2023-03-05T17:48:27.225Z,55.14355
2023-03-05T17:50:27.337Z,54.50195
2023-03-05T17:52:26.870Z,54.74805
2023-03-05T17:54:26.877Z,55.03809
2023-03-05T17:56:27.121Z,56.14063
2023-03-05T17:58:26.862Z,55.46582
2023-03-05T18:00:26.900Z,54.84277
2023-03-05T18:02:26.876Z,54.30078
2023-03-05T18:04:17.523Z,53.76172
2023-03-05T18:06:17.369Z,54.41699
2023-03-05T18:08:17.300Z,53.94922
2023-03-05T18:10:17.601Z,56.32324
2023-03-05T18:12:17.746Z,55.69238
2023-03-05T18:14:17.538Z,56.2168
2023-03-05T18:16:17.744Z,55.53223
2023-03-05T18:18:55.826Z,56.31738
2023-03-05T18:20:56.078Z,56.09668
2023-03-05T18:22:55.906Z,55.88672
2023-03-05T18:24:55.926Z,55.91992
2023-03-05T18:26:55.820Z,55.57422
2023-03-05T18:28:55.797Z,56.64063
2023-03-05T18:30:56.090Z,56.65527
2023-03-05T18:34:34.865Z,57.12207
2023-03-05T18:36:34.841Z,55.80762
2023-03-05T18:38:34.767Z,57.2168
2023-03-05T18:40:34.825Z,56.96289
2023-03-05T18:42:34.989Z,56.61719
2023-03-05T18:44:35.056Z,56.1875
2023-03-05T18:46:34.813Z,56.02734
2023-03-05T18:49:20.347Z,56.95508
2023-03-05T18:51:20.290Z,56.26074
2023-03-05T18:53:20.322Z,56.96875
2023-03-05T18:55:20.264Z,56.90625
2023-03-05T18:57:20.267Z,56.56641
2023-03-05T18:59:20.211Z,56.15527
2023-03-05T19:01:20.336Z,55.62793
2023-03-05T19:04:45.108Z,56.81152
2023-03-05T19:06:44.595Z,57.03418
2023-03-05T19:08:44.557Z,56.6748
2023-03-05T19:10:44.566Z,56.90137
2023-03-05T19:12:44.633Z,57.08887
2023-03-05T19:14:44.514Z,57.01758
2023-03-05T19:16:44.582Z,56.54785
2023-03-05T19:20:17.693Z,56.49023
2023-03-05T19:22:17.507Z,57.21191
2023-03-05T19:24:17.660Z,57.7207
2023-03-05T19:26:17.515Z,57.63672
2023-03-05T19:28:17.540Z,57.87207
2023-03-05T19:30:17.668Z,58.1084
2023-03-05T19:32:17.858Z,58.46094
2023-03-05T19:35:25.265Z,58.96094
2023-03-05T19:37:25.125Z,58.8418
2023-03-05T19:39:25.036Z,58.29004
2023-03-05T19:41:25.053Z,59.15332
2023-03-05T19:43:25.093Z,57.92969
2023-03-05T19:45:24.995Z,57.97656
2023-03-05T19:47:25.022Z,58.23145
2023-03-05T19:49:59.580Z,58.70703
2023-03-05T19:51:59.424Z,59.51953
2023-03-05T19:53:59.518Z,59.44727
2023-03-05T19:55:59.401Z,59.65039
2023-03-05T19:57:59.386Z,59.03711
2023-03-05T19:59:59.488Z,59.53809
2023-03-05T20:01:59.563Z,58.6582
2023-03-05T20:04:59.891Z,59.00391
2023-03-05T20:06:59.830Z,59.43066
2023-03-05T20:08:59.923Z,58.96582
2023-03-05T20:10:59.908Z,59.23926
2023-03-05T20:12:59.728Z,58.71387
2023-03-05T20:14:59.940Z,58.77441
2023-03-05T20:17:00.015Z,58.77734
2023-03-05T20:18:59.800Z,59.05664
2023-03-05T20:20:22.982Z,58.91309
2023-03-05T20:22:22.967Z,58.62402
2023-03-05T20:24:23.107Z,59.34375
2023-03-05T20:26:22.795Z,59.53418
2023-03-05T20:28:22.886Z,59.05664
2023-03-05T20:30:22.771Z,59.33301
2023-03-05T20:32:22.921Z,59.37695
2023-03-05T20:35:20.351Z,59.53418
2023-03-05T20:37:20.220Z,58.88574
2023-03-05T20:39:20.262Z,59.12695
2023-03-05T20:41:20.327Z,58.70117
2023-03-05T20:43:20.289Z,58.78809
2023-03-05T20:45:20.420Z,58.65625
2023-03-05T20:47:20.248Z,58.65723
2023-03-05T20:49:20.492Z,58.63281
2023-03-05T20:50:48.152Z,59.20996
2023-03-05T20:52:48.224Z,59.48438
2023-03-05T20:54:48.210Z,59.34375
2023-03-05T20:56:48.095Z,59.35059
2023-03-05T20:58:48.033Z,59.40918
2023-03-05T21:00:48.150Z,59.45508
2023-03-05T21:02:48.196Z,59.79395
2023-03-05T21:05:57.034Z,60.2832
2023-03-05T21:07:57.013Z,60.2998
2023-03-05T21:09:56.885Z,60.31543
2023-03-05T21:11:56.779Z,60.46582
2023-03-05T21:13:56.807Z,60.66797
2023-03-05T21:15:57.193Z,60.17969
2023-03-05T21:17:57.014Z,60.44531
2023-03-05T21:21:27.299Z,60.50586
2023-03-05T21:23:27.533Z,60.21387
2023-03-05T21:25:27.153Z,60.50684
2023-03-05T21:27:27.266Z,60.44434
2023-03-05T21:29:27.430Z,60.34082
2023-03-05T21:31:27.285Z,60.85645
2023-03-05T21:33:27.222Z,60.79004
2023-03-05T21:36:37.840Z,60.77734
2023-03-05T21:38:38.103Z,60.56445
2023-03-05T21:40:37.555Z,61.40039
2023-03-05T21:42:37.647Z,61.33496
2023-03-05T21:44:37.693Z,61.11426
2023-03-05T21:46:37.613Z,61.50098
2023-03-05T21:48:37.641Z,61.12402
2023-03-05T21:51:05.233Z,61.21582
2023-03-05T21:53:04.990Z,60.93652
2023-03-05T21:55:05.069Z,61.2334
2023-03-05T21:57:04.993Z,61.33203
2023-03-05T21:59:05.194Z,61.63965
2023-03-05T22:01:05.266Z,61.26367
2023-03-05T22:03:05.135Z,61.50098
2023-03-05T22:05:05.077Z,61.57813
2023-03-05T22:06:59.554Z,61.7207
2023-03-05T22:08:59.518Z,61.86523
2023-03-05T22:10:59.561Z,61.97266
2023-03-05T22:12:59.529Z,61.63477
2023-03-05T22:14:59.573Z,62.2041
2023-03-05T22:16:59.710Z,62.18359
2023-03-05T22:18:59.564Z,62.23535
2023-03-05T22:21:46.400Z,62.00586
2023-03-05T22:23:46.945Z,62.5332
2023-03-05T22:25:46.386Z,62.00488
2023-03-05T22:27:46.562Z,62.92871
2023-03-05T22:29:46.628Z,62.85352
2023-03-05T22:31:46.409Z,62.86035
2023-03-05T22:33:46.358Z,62.96582
2023-03-05T22:37:01.084Z,63.5127
2023-03-05T22:39:01.021Z,63.69043
2023-03-05T22:41:01.116Z,63.62207
2023-03-05T22:43:01.062Z,63.57617
2023-03-05T22:45:01.155Z,63.84277
2023-03-05T22:47:01.115Z,64.29102
2023-03-05T22:49:01.049Z,64.28516
2023-03-05T22:52:13.350Z,64.18945
2023-03-05T22:54:13.326Z,63.98145
2023-03-05T22:56:13.351Z,63.8125
2023-03-05T22:58:13.347Z,64.02246
2023-03-05T23:00:13.301Z,64.25
2023-03-05T23:02:13.427Z,64.40332
2023-03-05T23:04:13.432Z,64.5
2023-03-05T23:07:43.560Z,64.33398
2023-03-05T23:09:43.598Z,64.50488
2023-03-05T23:11:43.603Z,64.95605
2023-03-05T23:13:43.583Z,65.11426
2023-03-05T23:15:43.693Z,65.23438
2023-03-05T23:17:43.657Z,65.21484
2023-03-05T23:19:43.560Z,65.4082
2023-03-05T23:21:59.200Z,65.34277
2023-03-05T23:23:59.217Z,64.99414
2023-03-05T23:25:59.296Z,65.54492
2023-03-05T23:27:59.423Z,64.82813
2023-03-05T23:29:59.245Z,65.04199
2023-03-05T23:31:59.409Z,65.91602
2023-03-05T23:33:59.415Z,66.05566
2023-03-05T23:35:59.557Z,66.58691
2023-03-05T23:37:59.849Z,66.77637
2023-03-05T23:39:59.604Z,66.68848
2023-03-05T23:41:59.589Z,66.70898
2023-03-05T23:43:59.625Z,66.29492
2023-03-05T23:45:59.662Z,66.21582
2023-03-05T23:47:59.626Z,66.45117
2023-03-05T23:49:59.698Z,67.16895
2023-03-05T23:52:41.500Z,66.31348
2023-03-05T23:54:41.477Z,66.67383
2023-03-05T23:56:41.526Z,66.37793
2023-03-05T23:58:41.473Z,66.55371
